createdAt,value
2018-08-19T00:02:17.765Z,56.20
2018-08-19T00:04:44.215Z,56.10
2018-08-19T00:07:10.695Z,56.10
2018-08-19T00:09:37.152Z,56.20
2018-08-19T00:12:03.601Z,56.10
2018-08-19T00:14:30.966Z,56.80
2018-08-19T00:16:58.667Z,56.20
2018-08-19T00:19:25.173Z,56.20
2018-08-19T00:21:51.668Z,56.20
2018-08-19T00:24:18.163Z,56.20
2018-08-19T00:26:44.620Z,56.20
2018-08-19T00:29:11.104Z,56.20
2018-08-19T00:31:37.592Z,56.80
2018-08-19T00:34:04.045Z,56.20
2018-08-19T00:36:30.588Z,56.20
2018-08-19T00:38:57.382Z,56.30
2018-08-19T00:41:24.142Z,56.30
2018-08-19T00:43:50.566Z,56.30
2018-08-19T00:46:17.039Z,56.30
2018-08-19T00:48:44.760Z,56.30
2018-08-19T00:51:11.208Z,56.30
2018-08-19T00:53:38.181Z,56.20
2018-08-19T00:56:04.676Z,56.30
2018-08-19T00:58:31.145Z,56.30
2018-08-19T01:00:57.596Z,56.30
2018-08-19T01:03:24.108Z,56.30
2018-08-19T01:05:51.240Z,56.40
2018-08-19T01:08:17.745Z,56.30
2018-08-19T01:10:44.215Z,57.00
2018-08-19T01:13:11.103Z,56.40
2018-08-19T01:15:37.568Z,56.30
2018-08-19T01:18:04.045Z,56.40
2018-08-19T01:20:30.560Z,56.30
2018-08-19T01:22:57.050Z,56.40
2018-08-19T01:25:23.516Z,56.40
2018-08-19T01:27:50.100Z,56.30
2018-08-19T01:30:17.421Z,56.40
2018-08-19T01:32:43.890Z,56.40
2018-08-19T01:35:10.367Z,56.40
2018-08-19T01:37:37.656Z,56.40
2018-08-19T01:40:04.073Z,56.30
2018-08-19T01:42:30.562Z,56.40
2018-08-19T01:44:56.994Z,56.50
2018-08-19T01:47:23.486Z,56.40
2018-08-19T01:49:49.978Z,56.40
2018-08-19T01:52:16.443Z,56.40
2018-08-19T01:54:42.934Z,56.50
2018-08-19T01:57:09.464Z,56.40
2018-08-19T01:59:35.934Z,56.40
2018-08-19T02:02:05.517Z,56.50
2018-08-19T02:04:33.550Z,56.50
2018-08-19T02:07:00.016Z,56.50
2018-08-19T02:09:26.498Z,56.40
2018-08-19T02:11:56.674Z,56.50
2018-08-19T02:14:23.623Z,56.40
2018-08-19T02:16:50.954Z,56.50
2018-08-19T02:19:17.451Z,56.50
2018-08-19T02:21:44.588Z,56.50
2018-08-19T02:24:11.854Z,56.50
2018-08-19T02:26:38.326Z,56.60
2018-08-19T02:29:04.862Z,56.50
2018-08-19T02:31:31.326Z,56.50
2018-08-19T02:33:57.792Z,56.50
2018-08-19T02:36:24.273Z,56.50
2018-08-19T02:38:51.199Z,56.50
2018-08-19T02:41:17.704Z,56.50
2018-08-19T02:43:49.893Z,56.50
2018-08-19T02:46:16.611Z,56.50
2018-08-19T02:48:44.726Z,57.10
2018-08-19T02:51:13.589Z,56.60
2018-08-19T02:53:41.370Z,56.60
2018-08-19T02:56:08.110Z,56.60
2018-08-19T02:58:34.578Z,56.60
2018-08-19T03:01:01.049Z,56.60
2018-08-19T03:03:27.497Z,56.60
2018-08-19T03:05:59.717Z,56.60
2018-08-19T03:08:26.187Z,56.60
2018-08-19T03:10:52.671Z,56.70
2018-08-19T03:13:19.150Z,56.60
2018-08-19T03:15:45.721Z,56.70
2018-08-19T03:18:12.199Z,56.60
2018-08-19T03:20:38.676Z,56.60
2018-08-19T03:23:05.141Z,56.70
2018-08-19T03:25:31.617Z,56.70
2018-08-19T03:27:58.093Z,56.80
2018-08-19T03:30:24.635Z,56.80
2018-08-19T03:32:56.689Z,57.40
2018-08-19T03:35:23.183Z,56.80
2018-08-19T03:37:51.108Z,56.90
2018-08-19T03:40:17.587Z,56.80
2018-08-19T03:42:44.707Z,56.80
2018-08-19T03:45:17.640Z,56.80
2018-08-19T03:47:44.117Z,56.80
2018-08-19T03:50:16.355Z,56.90
2018-08-19T03:52:43.763Z,56.80
2018-08-19T03:55:45.401Z,56.90
2018-08-19T03:58:11.896Z,56.80
2018-08-19T04:00:41.135Z,56.80
2018-08-19T04:03:13.253Z,56.90
2018-08-19T04:05:40.838Z,56.90
2018-08-19T04:08:07.321Z,56.90
2018-08-19T04:10:33.920Z,56.90
2018-08-19T04:13:00.396Z,56.90
2018-08-19T04:15:26.964Z,57.00
2018-08-19T04:17:53.449Z,56.90
2018-08-19T04:20:19.932Z,56.80
2018-08-19T04:22:46.421Z,56.90
2018-08-19T04:25:12.888Z,56.90
2018-08-19T04:27:39.349Z,56.90
2018-08-19T04:30:05.829Z,56.90
2018-08-19T04:32:32.313Z,56.90
2018-08-19T04:34:59.192Z,57.00
2018-08-19T04:37:25.639Z,57.00
2018-08-19T04:39:52.093Z,57.00
2018-08-19T04:42:18.570Z,57.00
2018-08-19T04:44:45.031Z,57.00
2018-08-19T04:47:14.501Z,57.00
2018-08-19T04:49:41.481Z,57.00
2018-08-19T04:52:08.006Z,57.10
2018-08-19T04:54:34.448Z,57.10
2018-08-19T04:57:00.922Z,57.00
2018-08-19T04:59:27.403Z,57.00
2018-08-19T05:01:54.575Z,57.60
2018-08-19T05:04:21.656Z,57.00
2018-08-19T05:06:48.104Z,57.10
2018-08-19T05:09:14.805Z,57.00
2018-08-19T05:11:41.336Z,57.00
2018-08-19T05:14:07.814Z,57.00
2018-08-19T05:16:34.306Z,57.00
2018-08-19T05:19:04.474Z,57.10
2018-08-19T05:21:30.992Z,57.10
2018-08-19T05:23:57.430Z,57.10
2018-08-19T05:26:23.912Z,57.10
2018-08-19T05:28:55.998Z,57.10
2018-08-19T05:31:22.491Z,57.10
2018-08-19T05:33:48.942Z,57.20
2018-08-19T05:36:15.984Z,57.10
2018-08-19T05:38:43.704Z,57.10
2018-08-19T05:41:10.185Z,57.00
2018-08-19T05:43:36.664Z,57.10
2018-08-19T05:46:03.180Z,57.10
2018-08-19T05:48:29.649Z,57.10
2018-08-19T05:50:56.585Z,57.10
2018-08-19T05:53:23.219Z,57.10
2018-08-19T05:55:49.973Z,57.10
2018-08-19T05:58:16.812Z,57.10
2018-08-19T06:00:43.790Z,57.10
2018-08-19T06:03:10.246Z,57.10
2018-08-19T06:05:36.712Z,57.10
2018-08-19T06:08:09.066Z,57.10
2018-08-19T06:10:35.512Z,57.10
2018-08-19T06:13:02.007Z,57.20
2018-08-19T06:15:28.504Z,57.10
2018-08-19T06:17:55.058Z,57.20
2018-08-19T06:20:21.541Z,57.10
2018-08-19T06:22:48.037Z,57.20
2018-08-19T06:25:14.507Z,57.20
2018-08-19T06:27:49.449Z,57.20
2018-08-19T06:30:16.863Z,57.20
2018-08-19T06:32:44.011Z,57.20
2018-08-19T06:35:10.458Z,57.10
2018-08-19T06:37:36.932Z,57.10
2018-08-19T06:40:03.373Z,57.20
2018-08-19T06:42:29.859Z,57.40
2018-08-19T06:44:56.328Z,57.20
2018-08-19T06:47:22.794Z,57.30
2018-08-19T06:50:04.006Z,57.20
2018-08-19T06:52:30.530Z,57.20
2018-08-19T06:54:56.988Z,57.30
2018-08-19T06:57:23.650Z,57.20
2018-08-19T06:59:50.178Z,57.30
2018-08-19T07:02:16.655Z,57.20
2018-08-19T07:04:45.296Z,57.20
2018-08-19T07:07:13.132Z,57.20
2018-08-19T07:09:40.069Z,57.20
2018-08-19T07:12:06.575Z,57.20
2018-08-19T07:14:33.172Z,57.20
2018-08-19T07:16:59.681Z,57.20
2018-08-19T07:19:26.181Z,57.20
2018-08-19T07:22:01.144Z,57.20
2018-08-19T07:24:27.629Z,57.20
2018-08-19T07:26:54.530Z,57.20
2018-08-19T07:29:21.355Z,57.20
2018-08-19T07:31:47.827Z,57.10
2018-08-19T07:34:14.281Z,57.10
2018-08-19T07:36:40.759Z,57.10
2018-08-19T07:39:07.509Z,57.20
2018-08-19T07:41:34.013Z,57.10
2018-08-19T07:44:01.135Z,57.10
2018-08-19T07:46:27.592Z,57.10
2018-08-19T07:48:54.079Z,57.20
2018-08-19T07:51:20.532Z,57.10
2018-08-19T07:53:46.995Z,57.00
2018-08-19T07:56:13.500Z,57.00
2018-08-19T07:58:41.644Z,57.10
2018-08-19T08:01:08.141Z,57.10
2018-08-19T08:03:34.648Z,57.10
2018-08-19T08:06:01.116Z,57.10
2018-08-19T08:08:27.604Z,57.00
2018-08-19T08:10:54.073Z,57.10
2018-08-19T08:13:20.567Z,57.10
2018-08-19T08:15:54.626Z,57.10
2018-08-19T08:18:21.093Z,57.10
2018-08-19T08:20:47.593Z,57.00
2018-08-19T08:23:16.359Z,57.00
2018-08-19T08:25:42.855Z,57.00
2018-08-19T08:28:09.316Z,57.00
2018-08-19T08:30:35.868Z,57.00
2018-08-19T08:33:02.329Z,57.00
2018-08-19T08:35:28.795Z,57.00
2018-08-19T08:37:55.277Z,57.00
2018-08-19T08:40:21.792Z,56.90
2018-08-19T08:42:48.262Z,57.00
2018-08-19T08:45:19.283Z,57.00
2018-08-19T08:47:45.840Z,57.00
2018-08-19T08:50:12.458Z,57.00
2018-08-19T08:52:39.032Z,57.00
2018-08-19T08:55:05.447Z,57.00
2018-08-19T08:57:31.973Z,57.00
2018-08-19T08:59:58.430Z,57.00
2018-08-19T09:02:24.954Z,57.00
2018-08-19T09:04:52.398Z,57.00
2018-08-19T09:07:19.426Z,57.00
2018-08-19T09:09:46.647Z,57.00
2018-08-19T09:12:13.843Z,57.00
2018-08-19T09:14:40.877Z,57.00
2018-08-19T09:17:07.639Z,57.60
2018-08-19T09:19:34.117Z,57.00
2018-08-19T09:22:00.551Z,57.00
2018-08-19T09:24:27.003Z,57.00
2018-08-19T09:26:53.479Z,57.10
2018-08-19T09:29:20.370Z,57.00
2018-08-19T09:31:46.849Z,57.10
2018-08-19T09:34:13.468Z,57.00
2018-08-19T09:36:39.962Z,57.20
2018-08-19T09:39:06.451Z,57.20
2018-08-19T09:41:32.973Z,57.20
2018-08-19T09:43:59.439Z,57.20
2018-08-19T09:46:26.015Z,57.20
2018-08-19T09:48:52.559Z,57.10
2018-08-19T09:51:19.035Z,57.10
2018-08-19T09:53:45.539Z,57.10
2018-08-19T09:56:12.035Z,57.20
2018-08-19T09:58:39.231Z,57.20
2018-08-19T10:01:11.316Z,57.20
2018-08-19T10:03:37.783Z,57.10
2018-08-19T10:06:04.248Z,57.20
2018-08-19T10:08:30.723Z,57.20
2018-08-19T10:10:57.166Z,57.20
2018-08-19T10:13:23.612Z,57.30
2018-08-19T10:15:50.098Z,57.30
2018-08-19T10:18:16.554Z,57.30
2018-08-19T10:20:43.019Z,57.30
2018-08-19T10:23:09.476Z,57.00
2018-08-19T10:25:36.025Z,57.40
2018-08-19T10:28:02.579Z,57.20
2018-08-19T10:30:29.032Z,57.30
2018-08-19T10:33:04.066Z,57.30
2018-08-19T10:35:30.930Z,57.50
2018-08-19T10:37:57.638Z,57.40
2018-08-19T10:40:24.413Z,57.40
2018-08-19T10:42:50.906Z,57.50
2018-08-19T10:45:22.390Z,57.50
2018-08-19T10:47:48.860Z,57.60
2018-08-19T10:50:15.417Z,57.60
2018-08-19T10:52:42.541Z,57.60
2018-08-19T10:55:09.644Z,58.40
2018-08-19T10:57:36.129Z,57.60
2018-08-19T11:00:02.611Z,57.60
2018-08-19T11:02:29.080Z,57.60
2018-08-19T11:04:56.518Z,57.60
2018-08-19T11:07:23.086Z,57.60
2018-08-19T11:09:49.541Z,57.60
2018-08-19T11:12:16.035Z,57.60
2018-08-19T11:14:43.068Z,57.50
2018-08-19T11:17:09.580Z,57.50
2018-08-19T11:19:37.559Z,57.40
2018-08-19T11:22:04.041Z,57.20
2018-08-19T11:24:30.491Z,57.30
2018-08-19T11:27:02.652Z,57.10
2018-08-19T11:29:29.649Z,57.10
2018-08-19T11:31:56.105Z,57.10
2018-08-19T11:34:22.556Z,57.20
2018-08-19T11:36:49.008Z,56.90
2018-08-19T11:39:16.423Z,57.00
2018-08-19T11:41:42.911Z,56.90
2018-08-19T11:44:10.033Z,57.10
2018-08-19T11:46:36.811Z,57.10
2018-08-19T11:49:09.728Z,57.10
2018-08-19T11:51:40.157Z,56.90
2018-08-19T11:54:06.617Z,57.00
2018-08-19T11:56:33.069Z,57.70
2018-08-19T11:58:59.577Z,56.90
2018-08-19T12:01:26.113Z,57.00
2018-08-19T12:03:56.693Z,56.90
2018-08-19T12:06:32.097Z,56.80
2018-08-19T12:09:05.599Z,56.90
2018-08-19T12:11:33.229Z,56.90
2018-08-19T12:14:01.093Z,56.90
2018-08-19T12:16:27.783Z,56.90
2018-08-19T12:18:54.601Z,57.00
2018-08-19T12:21:22.019Z,57.00
2018-08-19T12:23:49.160Z,56.90
2018-08-19T12:26:15.671Z,57.10
2018-08-19T12:28:42.425Z,57.00
2018-08-19T12:31:08.972Z,57.00
2018-08-19T12:33:35.444Z,56.90
2018-08-19T12:36:01.987Z,56.90
2018-08-19T12:38:28.465Z,56.90
2018-08-19T12:40:54.989Z,56.90
2018-08-19T12:43:21.499Z,57.00
2018-08-19T12:45:47.961Z,57.00
2018-08-19T12:48:14.435Z,57.00
2018-08-19T12:50:40.901Z,57.70
2018-08-19T12:53:07.911Z,57.00
2018-08-19T12:55:34.407Z,56.80
2018-08-19T12:58:06.627Z,56.70
2018-08-19T13:00:33.114Z,56.80
2018-08-19T13:02:59.614Z,56.90
2018-08-19T13:05:27.151Z,56.90
2018-08-19T13:07:53.656Z,56.90
2018-08-19T13:10:20.601Z,57.00
2018-08-19T13:12:51.324Z,56.90
2018-08-19T13:15:17.807Z,57.40
2018-08-19T13:17:44.305Z,57.00
2018-08-19T13:20:10.856Z,57.40
2018-08-19T13:22:37.426Z,56.90
2018-08-19T13:25:04.028Z,56.90
2018-08-19T13:27:30.550Z,56.90
2018-08-19T13:29:57.015Z,57.00
2018-08-19T13:32:23.474Z,56.90
2018-08-19T13:34:49.960Z,57.00
2018-08-19T13:37:16.536Z,57.00
2018-08-19T13:39:43.059Z,57.00
2018-08-19T13:42:09.546Z,56.90
2018-08-19T13:44:36.032Z,56.90
2018-08-19T13:47:02.517Z,56.90
2018-08-19T13:49:29.369Z,57.00
2018-08-19T13:51:55.916Z,57.00
2018-08-19T13:54:23.947Z,56.90
2018-08-19T13:56:50.589Z,57.00
2018-08-19T13:59:17.701Z,56.90
2018-08-19T14:01:44.298Z,56.90
2018-08-19T14:04:11.040Z,57.00
2018-08-19T14:06:38.101Z,57.00
2018-08-19T14:09:04.918Z,57.00
2018-08-19T14:11:31.378Z,57.00
2018-08-19T14:13:57.844Z,57.00
2018-08-19T14:16:24.270Z,57.00
2018-08-19T14:18:50.728Z,56.90
2018-08-19T14:21:17.168Z,56.90
2018-08-19T14:23:43.684Z,56.90
2018-08-19T14:26:10.194Z,56.90
2018-08-19T14:28:36.649Z,56.90
2018-08-19T14:31:03.611Z,56.80
2018-08-19T14:33:30.111Z,56.80
2018-08-19T14:35:56.581Z,56.80
2018-08-19T14:38:23.151Z,56.80
2018-08-19T14:40:49.623Z,56.80
2018-08-19T14:43:16.103Z,56.70
2018-08-19T14:45:42.559Z,56.70
2018-08-19T14:48:09.052Z,56.80
2018-08-19T14:50:35.523Z,56.70
2018-08-19T14:53:01.996Z,56.70
2018-08-19T14:55:28.520Z,56.70
2018-08-19T14:57:55.008Z,56.70
2018-08-19T15:00:21.497Z,57.50
2018-08-19T15:02:47.960Z,56.70
2018-08-19T15:05:14.717Z,56.70
2018-08-19T15:07:41.346Z,56.60
2018-08-19T15:10:07.892Z,56.60
2018-08-19T15:12:34.297Z,56.60
2018-08-19T15:15:01.095Z,56.60
2018-08-19T15:17:27.583Z,56.60
2018-08-19T15:20:04.041Z,56.60
2018-08-19T15:22:30.534Z,56.70
2018-08-19T15:24:56.990Z,56.70
2018-08-19T15:27:23.461Z,56.60
2018-08-19T15:29:51.147Z,56.60
2018-08-19T15:32:17.748Z,56.60
2018-08-19T15:34:44.675Z,56.60
2018-08-19T15:37:11.157Z,56.60
2018-08-19T15:39:37.601Z,56.60
2018-08-19T15:42:04.079Z,56.60
2018-08-19T15:44:30.561Z,56.60
2018-08-19T15:46:57.015Z,56.50
2018-08-19T15:49:23.999Z,56.50
2018-08-19T15:51:50.527Z,56.50
2018-08-19T15:54:17.007Z,56.50
2018-08-19T15:56:43.483Z,56.50
2018-08-19T15:59:10.465Z,56.60
2018-08-19T16:01:37.415Z,56.50
2018-08-19T16:04:06.986Z,56.50
2018-08-19T16:06:33.435Z,56.50
2018-08-19T16:09:00.536Z,56.50
2018-08-19T16:11:26.991Z,56.50
2018-08-19T16:13:53.468Z,56.50
2018-08-19T16:16:22.261Z,56.60
2018-08-19T16:18:49.036Z,56.50
2018-08-19T16:21:15.494Z,56.50
2018-08-19T16:23:42.641Z,56.60
2018-08-19T16:26:09.219Z,56.60
2018-08-19T16:28:35.719Z,56.60
2018-08-19T16:31:02.199Z,56.50
2018-08-19T16:33:28.655Z,56.50
2018-08-19T16:35:55.115Z,56.50
2018-08-19T16:38:21.573Z,56.40
2018-08-19T16:40:48.127Z,56.50
2018-08-19T16:43:14.610Z,56.40
2018-08-19T16:45:41.066Z,56.50
2018-08-19T16:48:07.520Z,56.50
2018-08-19T16:50:34.039Z,56.50
2018-08-19T16:53:00.513Z,56.50
2018-08-19T16:55:26.962Z,56.40
2018-08-19T16:57:53.419Z,56.40
2018-08-19T17:00:19.936Z,56.50
2018-08-19T17:02:46.484Z,56.50
2018-08-19T17:05:12.964Z,56.50
2018-08-19T17:07:39.430Z,56.50
2018-08-19T17:10:05.919Z,56.50
2018-08-19T17:12:32.372Z,56.40
2018-08-19T17:14:58.848Z,56.50
2018-08-19T17:17:25.308Z,56.50
2018-08-19T17:19:51.830Z,56.50
2018-08-19T17:22:18.344Z,56.50
2018-08-19T17:24:44.818Z,56.50
2018-08-19T17:27:12.069Z,56.50
2018-08-19T17:29:38.560Z,56.40
2018-08-19T17:32:05.054Z,56.50
2018-08-19T17:34:31.535Z,56.40
2018-08-19T17:36:58.021Z,56.50
2018-08-19T17:39:24.516Z,56.50
2018-08-19T17:41:52.032Z,56.50
2018-08-19T17:44:18.872Z,56.50
2018-08-19T17:46:45.370Z,56.50
2018-08-19T17:49:16.419Z,56.50
2018-08-19T17:51:42.880Z,56.50
2018-08-19T17:54:15.123Z,56.50
2018-08-19T17:56:41.558Z,56.40
2018-08-19T17:59:08.042Z,56.50
2018-08-19T18:01:39.049Z,56.40
2018-08-19T18:04:05.497Z,56.40
2018-08-19T18:06:31.993Z,56.50
2018-08-19T18:08:58.449Z,56.50
2018-08-19T18:11:24.936Z,56.50
2018-08-19T18:13:51.405Z,56.50
2018-08-19T18:16:18.392Z,56.50
2018-08-19T18:18:46.884Z,56.50
2018-08-19T18:21:13.370Z,56.50
2018-08-19T18:23:39.954Z,56.40
2018-08-19T18:26:06.451Z,56.40
2018-08-19T18:28:33.012Z,56.40
2018-08-19T18:31:14.311Z,56.50
2018-08-19T18:33:45.440Z,56.40
2018-08-19T18:36:11.928Z,56.50
2018-08-19T18:38:38.423Z,56.50
2018-08-19T18:41:04.944Z,56.50
2018-08-19T18:43:31.397Z,56.50
2018-08-19T18:45:57.931Z,56.50
2018-08-19T18:48:24.444Z,56.50
2018-08-19T18:50:50.935Z,56.40
2018-08-19T18:53:17.468Z,56.40
2018-08-19T18:55:44.079Z,56.40
2018-08-19T18:58:10.932Z,56.50
2018-08-19T19:00:37.963Z,56.50
2018-08-19T19:03:04.490Z,56.50
2018-08-19T19:05:31.039Z,56.50
2018-08-19T19:08:02.791Z,56.40
2018-08-19T19:10:29.262Z,56.50
2018-08-19T19:12:55.729Z,56.50
2018-08-19T19:15:22.255Z,56.50
2018-08-19T19:17:48.742Z,56.50
2018-08-19T19:20:15.219Z,56.50
2018-08-19T19:22:41.797Z,56.50
2018-08-19T19:25:08.275Z,57.00
2018-08-19T19:27:34.761Z,57.10
2018-08-19T19:30:03.863Z,56.50
2018-08-19T19:32:31.101Z,56.60
2018-08-19T19:34:57.652Z,56.50
2018-08-19T19:37:24.166Z,56.50
2018-08-19T19:39:55.177Z,56.50
2018-08-19T19:42:22.695Z,56.40
2018-08-19T19:44:49.186Z,56.50
2018-08-19T19:47:15.704Z,56.50
2018-08-19T19:49:48.720Z,56.40
2018-08-19T19:52:15.751Z,56.50
2018-08-19T19:54:42.228Z,56.50
2018-08-19T19:57:08.699Z,56.50
2018-08-19T19:59:35.157Z,56.50
2018-08-19T20:02:01.804Z,56.40
2018-08-19T20:04:28.245Z,56.50
2018-08-19T20:06:55.400Z,56.40
2018-08-19T20:09:21.931Z,56.50
2018-08-19T20:11:48.385Z,56.50
2018-08-19T20:14:14.865Z,56.60
2018-08-19T20:16:41.332Z,56.50
2018-08-19T20:19:07.792Z,56.50
2018-08-19T20:21:34.267Z,56.40
2018-08-19T20:24:00.717Z,56.40
2018-08-19T20:26:27.577Z,56.40
2018-08-19T20:29:19.062Z,56.40
2018-08-19T20:31:45.872Z,56.40
2018-08-19T20:34:12.394Z,56.50
2018-08-19T20:36:38.879Z,56.40
2018-08-19T20:39:05.355Z,56.50
2018-08-19T20:41:31.959Z,56.40
2018-08-19T20:43:58.526Z,56.40
2018-08-19T20:46:25.020Z,56.50
2018-08-19T20:48:52.879Z,56.40
2018-08-19T20:51:19.313Z,56.40
2018-08-19T20:53:45.828Z,56.20
2018-08-19T20:56:12.275Z,56.40
2018-08-19T20:58:38.749Z,56.40
2018-08-19T21:01:05.209Z,56.40
2018-08-19T21:03:31.690Z,56.40
2018-08-19T21:05:58.159Z,56.40
2018-08-19T21:08:24.638Z,56.40
2018-08-19T21:10:51.114Z,56.40
2018-08-19T21:13:19.006Z,56.40
2018-08-19T21:15:48.914Z,56.40
2018-08-19T21:18:15.366Z,56.40
2018-08-19T21:20:42.716Z,56.40
2018-08-19T21:23:09.196Z,56.50
2018-08-19T21:25:35.713Z,56.40
2018-08-19T21:28:02.162Z,56.40
2018-08-19T21:30:28.683Z,56.40
2018-08-19T21:32:56.164Z,56.40
2018-08-19T21:35:22.650Z,56.40
2018-08-19T21:37:49.203Z,56.40
2018-08-19T21:40:15.634Z,56.30
2018-08-19T21:42:42.106Z,56.40
2018-08-19T21:45:09.255Z,56.40
2018-08-19T21:47:35.731Z,56.40
2018-08-19T21:50:02.272Z,56.40
2018-08-19T21:52:28.763Z,56.30
2018-08-19T21:54:55.252Z,56.40
2018-08-19T21:57:21.696Z,56.40
2018-08-19T21:59:48.152Z,56.30
2018-08-19T22:02:20.361Z,56.40
2018-08-19T22:04:46.867Z,56.40
2018-08-19T22:07:13.325Z,56.40
2018-08-19T22:09:39.807Z,56.40
2018-08-19T22:12:06.303Z,55.90
2018-08-19T22:14:33.243Z,56.50
2018-08-19T22:17:05.536Z,57.00
2018-08-19T22:19:32.395Z,56.40
2018-08-19T22:21:58.867Z,56.40
2018-08-19T22:24:25.398Z,56.40
2018-08-19T22:26:51.826Z,56.50
2018-08-19T22:29:19.354Z,56.40
2018-08-19T22:31:45.823Z,56.40
2018-08-19T22:34:12.299Z,56.40
2018-08-19T22:36:38.808Z,56.40
2018-08-19T22:39:05.377Z,57.00
2018-08-19T22:41:33.215Z,56.40
2018-08-19T22:43:59.669Z,56.50
2018-08-19T22:46:26.695Z,56.40
2018-08-19T22:48:54.229Z,56.40
2018-08-19T22:51:20.667Z,56.50
2018-08-19T22:53:47.111Z,56.40
2018-08-19T22:56:13.561Z,56.40
2018-08-19T22:58:40.054Z,56.40
2018-08-19T23:01:06.546Z,56.50
2018-08-19T23:03:33.010Z,56.40
2018-08-19T23:05:59.464Z,56.40
2018-08-19T23:08:29.076Z,56.50
2018-08-19T23:10:57.776Z,57.20
2018-08-19T23:13:28.860Z,56.60
2018-08-19T23:15:55.316Z,56.50
2018-08-19T23:18:21.779Z,56.60
2018-08-19T23:20:48.744Z,56.60
2018-08-19T23:23:15.191Z,56.60
2018-08-19T23:25:41.650Z,56.70
2018-08-19T23:28:08.115Z,56.70
2018-08-19T23:30:34.549Z,56.60
2018-08-19T23:33:01.007Z,56.60
2018-08-19T23:35:27.497Z,56.70
2018-08-19T23:37:53.974Z,56.70
2018-08-19T23:40:20.437Z,56.70
2018-08-19T23:42:46.934Z,56.70
2018-08-19T23:45:13.382Z,56.70
2018-08-19T23:47:39.888Z,56.70
2018-08-19T23:50:07.254Z,56.70
2018-08-19T23:52:33.750Z,56.80
2018-08-19T23:55:00.224Z,56.70
2018-08-19T23:57:26.717Z,56.70
2018-08-19T23:59:53.189Z,56.90
